createdAt,value
2019-05-30T00:00:17.489Z,101505.13
2019-05-30T00:02:45.708Z,101507.77
2019-05-30T00:05:14.854Z,101503.81
2019-05-30T00:07:43.873Z,101504.71
2019-05-30T00:10:13.121Z,101509.12
2019-05-30T00:12:42.139Z,101505.59
2019-05-30T00:15:11.231Z,101500.75
2019-05-30T00:17:40.300Z,101505.14
2019-05-30T00:20:09.415Z,101508.69
2019-05-30T00:22:38.456Z,101504.73
2019-05-30T00:25:10.434Z,101505.63
2019-05-30T00:27:39.458Z,101513.58
2019-05-30T00:30:23.276Z,101507.83
2019-05-30T00:32:39.306Z,101510.48
2019-05-30T00:35:08.516Z,101509.19
2019-05-30T00:37:37.792Z,101513.15
2019-05-30T00:40:09.900Z,101517.14
2019-05-30T00:42:38.941Z,101507.87
2019-05-30T00:45:19.810Z,101523.33
2019-05-30T00:47:38.756Z,101527.31
2019-05-30T00:50:08.247Z,101529.08
2019-05-30T00:52:37.267Z,101533.91
2019-05-30T00:55:07.237Z,101522.44
2019-05-30T00:57:36.388Z,101525.07
2019-05-30T01:00:07.484Z,101522.88
2019-05-30T01:02:36.578Z,101521.53
2019-05-30T01:05:08.113Z,101518.91
2019-05-30T01:07:37.368Z,101518.47
2019-05-30T01:10:08.133Z,101529.50
2019-05-30T01:12:37.287Z,101525.50
2019-05-30T01:15:07.762Z,101528.59
2019-05-30T01:17:36.915Z,101529.92
2019-05-30T01:20:09.170Z,101528.61
2019-05-30T01:22:38.273Z,101529.46
2019-05-30T01:25:09.175Z,101537.84
2019-05-30T01:27:38.208Z,101531.21
2019-05-30T01:30:10.046Z,101534.30
2019-05-30T01:32:39.074Z,101533.86
2019-05-30T01:35:08.315Z,101529.44
2019-05-30T01:37:37.384Z,101534.73
2019-05-30T01:40:09.478Z,101532.08
2019-05-30T01:42:38.511Z,101534.27
2019-05-30T01:45:11.017Z,101539.99
2019-05-30T01:47:40.100Z,101535.14
2019-05-30T01:50:10.917Z,101533.80
2019-05-30T01:52:39.919Z,101536.88
2019-05-30T01:55:12.443Z,101538.66
2019-05-30T01:57:41.507Z,101542.17
2019-05-30T02:00:21.158Z,101537.31
2019-05-30T02:02:47.041Z,101526.30
2019-05-30T02:05:16.060Z,101528.48
2019-05-30T02:07:45.247Z,101533.77
2019-05-30T02:10:15.246Z,101523.62
2019-05-30T02:12:44.260Z,101527.61
2019-05-30T02:15:14.801Z,101531.16
2019-05-30T02:17:43.818Z,101529.82
2019-05-30T02:20:13.031Z,101528.95
2019-05-30T02:22:42.192Z,101528.50
2019-05-30T02:25:11.218Z,101526.27
2019-05-30T02:27:40.220Z,101527.16
2019-05-30T02:30:12.566Z,101528.02
2019-05-30T02:32:40.279Z,101528.87
2019-05-30T02:35:12.208Z,101531.99
2019-05-30T02:37:40.260Z,101532.42
2019-05-30T02:40:14.584Z,101543.47
2019-05-30T02:42:40.776Z,101552.27
2019-05-30T02:45:12.235Z,101550.95
2019-05-30T02:47:40.637Z,101544.36
2019-05-30T02:50:11.602Z,101540.83
2019-05-30T02:52:40.598Z,101551.86
2019-05-30T02:55:12.596Z,101544.83
2019-05-30T02:57:40.437Z,101547.48
2019-05-30T03:00:16.163Z,101547.94
2019-05-30T03:02:41.211Z,101552.36
2019-05-30T03:05:12.744Z,101545.74
2019-05-30T03:07:41.048Z,101549.30
2019-05-30T03:10:14.568Z,101553.27
2019-05-30T03:12:42.263Z,101559.91
2019-05-30T03:15:14.570Z,101563.00
2019-05-30T03:17:42.735Z,101569.17
2019-05-30T03:20:21.893Z,101570.08
2019-05-30T03:22:43.005Z,101571.84
2019-05-30T03:25:15.583Z,101578.04
2019-05-30T03:27:42.964Z,101581.56
2019-05-30T03:30:24.915Z,101594.34
2019-05-30T03:35:24.075Z,101600.55
2019-05-30T03:37:44.338Z,101597.47
2019-05-30T03:40:13.429Z,101601.00
2019-05-30T03:42:42.469Z,101588.63
2019-05-30T03:45:14.086Z,101603.62
2019-05-30T03:47:49.673Z,101604.07
2019-05-30T03:50:18.840Z,101598.73
2019-05-30T03:52:47.859Z,101598.30
2019-05-30T03:55:16.961Z,101606.70
2019-05-30T03:58:16.634Z,101600.92
2019-05-30T04:00:55.645Z,101605.38
2019-05-30T04:03:50.574Z,101593.45
2019-05-30T04:06:32.617Z,101591.66
2019-05-30T04:09:07.839Z,101593.44
2019-05-30T04:12:14.999Z,101593.84
2019-05-30T04:14:44.950Z,101595.16
2019-05-30T04:17:16.074Z,101594.70
2019-05-30T04:19:44.867Z,101600.86
2019-05-30T04:22:15.386Z,101598.56
2019-05-30T04:24:44.628Z,101599.02
2019-05-30T04:27:13.932Z,101607.42
2019-05-30T04:29:43.010Z,101605.22
2019-05-30T04:32:12.478Z,101600.73
2019-05-30T04:34:41.552Z,101616.13
2019-05-30T04:37:10.771Z,101617.41
2019-05-30T04:39:40.210Z,101619.92
2019-05-30T04:42:09.410Z,101627.31
2019-05-30T04:44:40.191Z,101621.88
2019-05-30T04:47:10.104Z,101626.69
2019-05-30T04:49:39.448Z,101622.36
2019-05-30T04:52:11.959Z,101630.60
2019-05-30T04:54:39.280Z,101627.77
2019-05-30T04:57:08.375Z,101625.95
2019-05-30T04:59:37.462Z,101624.17
2019-05-30T05:02:06.505Z,101612.81
2019-05-30T05:04:35.605Z,101626.36
2019-05-30T05:07:04.635Z,101626.31
2019-05-30T05:09:33.837Z,101623.05
2019-05-30T05:12:02.872Z,101619.72
2019-05-30T05:14:31.914Z,101606.91
2019-05-30T05:17:00.961Z,101619.30
2019-05-30T05:19:30.055Z,101626.30
2019-05-30T05:21:59.786Z,101621.94
2019-05-30T05:24:29.574Z,101624.24
2019-05-30T05:26:59.585Z,101623.76
2019-05-30T05:29:29.268Z,101635.95
2019-05-30T05:31:58.833Z,101637.89
2019-05-30T05:34:28.232Z,101639.61
2019-05-30T05:36:57.809Z,101640.61
2019-05-30T05:39:28.376Z,101643.66
2019-05-30T05:41:59.905Z,101640.34
2019-05-30T05:44:29.605Z,101650.70
2019-05-30T05:46:59.119Z,101644.16
2019-05-30T05:49:28.848Z,101636.31
2019-05-30T05:51:58.438Z,101638.05
2019-05-30T05:54:29.127Z,101640.13
2019-05-30T05:56:59.046Z,101641.20
2019-05-30T05:59:29.286Z,101640.88
2019-05-30T06:01:58.665Z,101632.94
2019-05-30T06:04:30.498Z,101628.94
2019-05-30T06:07:00.008Z,101634.58
2019-05-30T06:09:29.435Z,101637.91
2019-05-30T06:11:58.742Z,101631.69
2019-05-30T06:14:28.173Z,101634.17
2019-05-30T06:16:57.570Z,101639.59
2019-05-30T06:19:27.454Z,101637.59
2019-05-30T06:21:56.734Z,101639.52
2019-05-30T06:24:25.987Z,101638.19
2019-05-30T06:26:55.204Z,101646.92
2019-05-30T06:29:24.497Z,101644.94
2019-05-30T06:31:53.799Z,101638.09
2019-05-30T06:34:32.831Z,101652.95
2019-05-30T06:36:53.830Z,101639.24
2019-05-30T06:39:23.423Z,101651.31
2019-05-30T06:41:52.635Z,101648.95
2019-05-30T06:44:21.870Z,101650.81
2019-05-30T06:46:51.109Z,101658.75
2019-05-30T06:49:20.584Z,101654.73
2019-05-30T06:51:49.838Z,101654.23
2019-05-30T06:54:19.027Z,101650.42
2019-05-30T06:56:48.125Z,101649.94
2019-05-30T06:59:17.172Z,101636.39
2019-05-30T07:01:46.751Z,101647.27
2019-05-30T07:04:16.480Z,101648.11
2019-05-30T07:06:46.063Z,101637.25
2019-05-30T07:09:15.353Z,101640.97
2019-05-30T07:11:44.586Z,101637.52
2019-05-30T07:14:14.800Z,101630.68
2019-05-30T07:16:43.960Z,101646.20
2019-05-30T07:19:13.115Z,101640.59
2019-05-30T07:21:42.202Z,101632.63
2019-05-30T07:24:11.261Z,101644.36
2019-05-30T07:26:40.282Z,101639.17
2019-05-30T07:29:09.451Z,101640.80
2019-05-30T07:31:38.477Z,101633.48
2019-05-30T07:34:07.614Z,101630.26
2019-05-30T07:36:36.721Z,101634.50
2019-05-30T07:39:08.637Z,101632.84
2019-05-30T07:41:37.887Z,101638.17
2019-05-30T07:44:06.917Z,101634.44
2019-05-30T07:46:37.190Z,101643.45
2019-05-30T07:49:06.388Z,101643.45
2019-05-30T07:51:35.413Z,101635.71
2019-05-30T07:54:04.715Z,101638.01
2019-05-30T07:56:33.802Z,101632.98
2019-05-30T07:59:02.856Z,101630.80
2019-05-30T08:01:33.099Z,101631.30
2019-05-30T08:04:02.125Z,101632.06
2019-05-30T08:06:31.526Z,101636.56
2019-05-30T08:09:00.604Z,101633.05
2019-05-30T08:11:30.803Z,101629.64
2019-05-30T08:14:00.289Z,101631.38
2019-05-30T08:16:31.259Z,101637.28
2019-05-30T08:19:00.374Z,101638.00
2019-05-30T08:21:29.809Z,101632.74
2019-05-30T08:23:59.010Z,101638.50
2019-05-30T08:26:28.197Z,101636.81
2019-05-30T08:28:58.252Z,101638.02
2019-05-30T08:31:28.607Z,101640.64
2019-05-30T08:33:59.166Z,101645.59
2019-05-30T08:36:28.773Z,101637.53
2019-05-30T08:38:57.869Z,101641.02
2019-05-30T08:41:26.899Z,101639.98
2019-05-30T08:43:55.915Z,101638.34
2019-05-30T08:46:25.127Z,101651.73
2019-05-30T08:48:54.277Z,101632.03
2019-05-30T08:51:23.377Z,101639.50
2019-05-30T08:53:52.629Z,101633.73
2019-05-30T08:56:21.742Z,101633.55
2019-05-30T08:58:50.935Z,101627.88
2019-05-30T09:01:20.966Z,101626.53
2019-05-30T09:03:49.982Z,101628.06
2019-05-30T09:06:19.084Z,101620.59
2019-05-30T09:08:48.098Z,101617.34
2019-05-30T09:11:17.122Z,101625.77
2019-05-30T09:13:46.773Z,101618.18
2019-05-30T09:16:15.908Z,101621.53
2019-05-30T09:18:45.265Z,101630.95
2019-05-30T09:21:14.446Z,101626.63
2019-05-30T09:23:44.007Z,101615.27
2019-05-30T09:26:13.195Z,101622.42
2019-05-30T09:28:46.263Z,101613.36
2019-05-30T09:31:15.375Z,101612.91
2019-05-30T09:33:44.708Z,101608.26
2019-05-30T09:36:14.211Z,101612.02
2019-05-30T09:38:43.610Z,101608.81
2019-05-30T09:41:12.674Z,101604.98
2019-05-30T09:43:42.934Z,101602.88
2019-05-30T09:46:12.435Z,101604.40
2019-05-30T09:48:43.055Z,101600.97
2019-05-30T09:51:12.276Z,101593.63
2019-05-30T09:53:42.455Z,101597.91
2019-05-30T09:56:12.113Z,101594.20
2019-05-30T09:58:42.240Z,101584.09
2019-05-30T10:01:11.880Z,101588.39
2019-05-30T10:03:43.053Z,101588.84
2019-05-30T10:06:11.787Z,101591.22
2019-05-30T10:08:40.823Z,101589.56
2019-05-30T10:11:09.864Z,101592.31
2019-05-30T10:13:38.948Z,101585.42
2019-05-30T10:16:08.993Z,101585.72
2019-05-30T10:18:38.097Z,101582.37
2019-05-30T10:21:07.145Z,101580.76
2019-05-30T10:23:36.255Z,101576.67
2019-05-30T10:26:05.409Z,101586.27
2019-05-30T10:28:34.481Z,101573.50
2019-05-30T10:31:03.588Z,101573.13
2019-05-30T10:33:32.607Z,101576.23
2019-05-30T10:36:01.623Z,101566.41
2019-05-30T10:38:30.644Z,101561.55
2019-05-30T10:40:59.693Z,101555.87
2019-05-30T10:43:28.704Z,101554.66
2019-05-30T10:45:57.709Z,101552.58
2019-05-30T10:48:26.736Z,101555.20
2019-05-30T10:50:56.455Z,101557.37
2019-05-30T10:53:25.585Z,101536.02
2019-05-30T10:55:54.940Z,101560.72
2019-05-30T10:58:24.447Z,101548.37
2019-05-30T11:00:58.672Z,101544.09
2019-05-30T11:03:28.762Z,101545.70
2019-05-30T11:06:20.328Z,101549.81
2019-05-30T11:08:50.574Z,101543.75
2019-05-30T11:11:19.752Z,101541.15
2019-05-30T11:13:48.997Z,101540.19
2019-05-30T11:16:18.578Z,101543.20
2019-05-30T11:18:48.960Z,101540.73
2019-05-30T11:21:18.597Z,101543.17
2019-05-30T11:23:47.914Z,101546.92
2019-05-30T11:26:18.330Z,101548.14
2019-05-30T11:28:48.554Z,101541.44
2019-05-30T11:31:17.863Z,101541.70
2019-05-30T11:33:46.897Z,101537.17
2019-05-30T11:36:16.026Z,101542.98
2019-05-30T11:38:45.024Z,101535.51
2019-05-30T11:41:14.054Z,101537.36
2019-05-30T11:43:43.227Z,101544.72
2019-05-30T11:46:12.310Z,101541.16
2019-05-30T11:48:41.330Z,101537.53
2019-05-30T11:51:10.612Z,101533.92
2019-05-30T11:53:39.685Z,101540.75
2019-05-30T11:56:08.773Z,101532.59
2019-05-30T11:58:37.787Z,101532.91
2019-05-30T12:01:06.838Z,101532.41
2019-05-30T12:03:35.849Z,101524.10
2019-05-30T12:06:05.021Z,101528.42
2019-05-30T12:08:34.094Z,101522.75
2019-05-30T12:11:03.139Z,101516.89
2019-05-30T12:13:32.260Z,101520.00
2019-05-30T12:16:01.856Z,101514.25
2019-05-30T12:18:31.116Z,101518.97
2019-05-30T12:21:00.135Z,101513.61
2019-05-30T12:23:29.792Z,101507.03
2019-05-30T12:25:59.957Z,101512.25
2019-05-30T12:28:29.603Z,101509.28
2019-05-30T12:31:04.260Z,101507.97
2019-05-30T12:33:29.726Z,101514.98
2019-05-30T12:35:58.965Z,101517.69
2019-05-30T12:38:28.334Z,101513.88
2019-05-30T12:40:58.718Z,101511.70
2019-05-30T12:43:28.433Z,101518.11
2019-05-30T12:45:59.028Z,101511.61
2019-05-30T12:48:30.392Z,101507.94
2019-05-30T12:51:01.779Z,101510.79
2019-05-30T12:53:30.877Z,101512.66
2019-05-30T12:56:00.575Z,101519.34
2019-05-30T12:58:31.771Z,101516.77
2019-05-30T13:01:02.869Z,101509.48
2019-05-30T13:03:32.270Z,101505.48
2019-05-30T13:06:01.488Z,101503.19
2019-05-30T13:08:30.571Z,101512.92
2019-05-30T13:10:59.840Z,101512.17
2019-05-30T13:13:29.346Z,101507.02
2019-05-30T13:15:58.796Z,101511.50
2019-05-30T13:18:28.061Z,101508.86
2019-05-30T13:21:04.273Z,101497.83
2019-05-30T13:23:33.517Z,101510.15
2019-05-30T13:26:03.820Z,101507.50
2019-05-30T13:28:33.155Z,101507.92
2019-05-30T13:31:02.374Z,101505.75
2019-05-30T13:33:31.598Z,101504.11
2019-05-30T13:36:01.053Z,101501.41
2019-05-30T13:38:30.330Z,101500.95
2019-05-30T13:40:59.613Z,101490.47
2019-05-30T13:43:28.750Z,101493.56
2019-05-30T13:45:58.163Z,101489.20
2019-05-30T13:48:28.039Z,101490.38
2019-05-30T13:50:57.262Z,101497.10
2019-05-30T13:53:27.854Z,101485.03
2019-05-30T13:55:57.019Z,101488.95
2019-05-30T13:58:26.304Z,101480.18
2019-05-30T14:00:55.364Z,101486.43
2019-05-30T14:03:24.529Z,101490.95
2019-05-30T14:05:53.654Z,101487.89
2019-05-30T14:08:22.858Z,101492.53
2019-05-30T14:10:51.981Z,101483.59
2019-05-30T14:13:21.162Z,101483.00
2019-05-30T14:15:50.284Z,101489.92
2019-05-30T14:18:19.345Z,101478.44
2019-05-30T14:20:48.446Z,101470.84
2019-05-30T14:23:17.674Z,101473.61
2019-05-30T14:25:46.852Z,101464.53
2019-05-30T14:28:15.894Z,101466.14
2019-05-30T14:30:47.891Z,101468.59
2019-05-30T14:33:17.134Z,101466.31
2019-05-30T14:35:46.195Z,101463.22
2019-05-30T14:38:15.312Z,101460.85
2019-05-30T14:40:44.373Z,101460.25
2019-05-30T14:43:13.637Z,101464.08
2019-05-30T14:45:42.721Z,101459.10
2019-05-30T14:48:12.582Z,101451.27
2019-05-30T14:50:41.755Z,101454.78
2019-05-30T14:53:11.033Z,101457.70
2019-05-30T14:55:40.182Z,101449.41
2019-05-30T14:58:09.234Z,101456.11
2019-05-30T15:00:38.247Z,101451.65
2019-05-30T15:03:10.217Z,101460.81
2019-05-30T15:05:38.163Z,101456.31
2019-05-30T15:08:08.430Z,101452.67
2019-05-30T15:10:37.705Z,101463.27
2019-05-30T15:13:07.497Z,101462.60
2019-05-30T15:15:36.720Z,101457.36
2019-05-30T15:18:06.755Z,101460.35
2019-05-30T15:20:36.024Z,101461.97
2019-05-30T15:23:05.516Z,101457.45
2019-05-30T15:25:35.048Z,101456.20
2019-05-30T15:28:04.117Z,101463.84
2019-05-30T15:30:33.166Z,101453.52
2019-05-30T15:33:02.187Z,101451.00
2019-05-30T15:35:31.207Z,101445.19
2019-05-30T15:38:00.287Z,101445.80
2019-05-30T15:40:29.389Z,101445.42
2019-05-30T15:42:58.478Z,101439.45
2019-05-30T15:45:27.599Z,101447.01
2019-05-30T15:47:56.692Z,101448.75
2019-05-30T15:50:25.747Z,101446.71
2019-05-30T15:52:54.935Z,101437.64
2019-05-30T15:55:23.958Z,101439.55
2019-05-30T15:57:52.989Z,101433.59
2019-05-30T16:00:22.781Z,101440.37
2019-05-30T16:02:51.833Z,101433.45
2019-05-30T16:05:21.396Z,101429.87
2019-05-30T16:07:50.477Z,101432.44
2019-05-30T16:10:19.533Z,101422.61
2019-05-30T16:12:48.562Z,101425.86
2019-05-30T16:15:18.049Z,101431.50
2019-05-30T16:17:47.066Z,101432.42
2019-05-30T16:20:18.025Z,101433.19
2019-05-30T16:22:47.926Z,101437.25
2019-05-30T16:25:17.769Z,101434.30
2019-05-30T16:27:46.942Z,101440.14
2019-05-30T16:30:22.080Z,101438.28
2019-05-30T16:32:48.541Z,101437.03
2019-05-30T16:35:18.199Z,101435.28
2019-05-30T16:37:47.694Z,101436.63
2019-05-30T16:40:16.775Z,101438.09
2019-05-30T16:42:45.952Z,101434.75
2019-05-30T16:45:19.479Z,101434.97
2019-05-30T16:47:49.220Z,101433.13
2019-05-30T16:50:18.968Z,101440.96
2019-05-30T16:52:48.099Z,101440.77
2019-05-30T16:55:17.264Z,101436.64
2019-05-30T16:57:46.345Z,101428.52
2019-05-30T17:00:15.782Z,101432.00
2019-05-30T17:02:44.850Z,101438.72
2019-05-30T17:05:14.052Z,101441.22
2019-05-30T17:07:43.132Z,101442.93
2019-05-30T17:10:23.306Z,101446.14
2019-05-30T17:12:43.552Z,101447.17
2019-05-30T17:15:13.548Z,101448.37
2019-05-30T17:17:42.644Z,101448.58
2019-05-30T17:20:12.208Z,101446.97
2019-05-30T17:22:41.313Z,101444.98
2019-05-30T17:25:10.411Z,101447.20
2019-05-30T17:27:39.451Z,101446.80
2019-05-30T17:30:10.241Z,101446.80
2019-05-30T17:32:39.348Z,101442.11
2019-05-30T17:35:09.273Z,101442.11
2019-05-30T17:37:38.400Z,101444.59
2019-05-30T17:40:07.541Z,101439.75
2019-05-30T17:42:36.888Z,101439.75
2019-05-30T17:45:12.219Z,101441.27
2019-05-30T17:47:41.416Z,101444.23
2019-05-30T17:50:12.513Z,101448.00
2019-05-30T17:52:41.640Z,101447.31
2019-05-30T17:55:10.975Z,101447.78
2019-05-30T17:57:40.071Z,101446.95
2019-05-30T18:00:12.033Z,101444.59
2019-05-30T18:02:42.061Z,101443.95
2019-05-30T18:05:11.159Z,101443.95
2019-05-30T18:07:40.408Z,101445.53
2019-05-30T18:10:09.709Z,101446.73
2019-05-30T18:12:38.733Z,101447.26
2019-05-30T18:15:13.472Z,101443.96
2019-05-30T18:17:42.513Z,101445.68
